Time;durP1;ratioP1;P1;durP2;ratioP2;P2;SDS_P1;SDS_P2;PMS_P1;PMS_P2;Temp;Humidity;BMP_temperature;BMP_pressure;BME280_temperature;BME280_humidity;BME280_pressure;Samples;Min_cycle;Max_cycle;Signal;HPM_P1;HPM_P2
2021/03/14 00:02:44;;;;;;;9.40;3.12;;;;;;;7.60;66.98;98529.53;2950363;80;21178;-67
2021/03/14 00:06:47;;;;;;;4.42;3.40;;;;;;;7.64;66.83;98529.09;2877808;82;21156;-66
2021/03/14 00:10:54;;;;;;;2.77;2.30;;;;;;;7.66;66.64;98523.63;2950394;80;21636;-67
2021/03/14 00:14:56;;;;;;;5.20;2.12;;;;;;;7.68;66.57;98523.83;2950559;80;21149;-67
2021/03/14 00:19:00;;;;;;;2.35;2.15;;;;;;;7.66;66.70;98522.30;2877707;82;21121;-68
2021/03/14 00:23:04;;;;;;;5.90;2.87;;;;;;;7.61;66.59;98519.28;2950494;80;21169;-67
2021/03/14 00:27:07;;;;;;;2.52;2.33;;;;;;;7.55;66.51;98520.23;2877730;82;21144;-68
2021/03/14 00:31:10;;;;;;;4.08;2.75;;;;;;;7.52;66.52;98524.98;2950472;80;21122;-67
2021/03/14 00:35:16;;;;;;;6.42;2.77;;;;;;;7.49;66.56;98528.78;2877764;82;21615;-67
2021/03/14 00:39:19;;;;;;;4.20;1.80;;;;;;;7.44;66.77;98521.75;2950690;80;21094;-67
2021/03/14 00:43:22;;;;;;;2.85;2.10;;;;;;;7.40;66.92;98540.23;2877804;82;21141;-66
2021/03/14 00:47:25;;;;;;;3.35;1.95;;;;;;;7.35;67.15;98538.02;2950054;80;21165;-68
2021/03/14 00:51:28;;;;;;;5.08;2.30;;;;;;;7.33;67.36;98531.23;2877621;82;21164;-67
2021/03/14 00:55:31;;;;;;;4.17;3.05;;;;;;;7.32;67.33;98532.22;2950632;80;21125;-66
2021/03/14 00:59:34;;;;;;;1.98;1.82;;;;;;;7.32;67.53;98536.19;2951015;80;21139;-66
2021/03/14 01:03:37;;;;;;;7.33;2.37;;;;;;;7.35;67.65;98538.53;2950610;80;21172;-67
2021/03/14 01:07:41;;;;;;;6.75;3.08;;;;;;;7.35;67.62;98533.24;2878189;82;21176;-68
2021/03/14 01:11:44;;;;;;;7.25;2.90;;;;;;;7.37;67.61;98533.45;2950826;80;21165;-67
2021/03/14 01:15:50;;;;;;;3.33;2.15;;;;;;;7.38;67.67;98546.17;2878098;82;21161;-66
2021/03/14 01:19:53;;;;;;;4.85;2.25;;;;;;;7.35;67.74;98543.82;2950659;80;21157;-68
2021/03/14 01:23:55;;;;;;;3.80;2.47;;;;;;;7.33;67.91;98552.41;2875140;82;21134;-68
2021/03/14 01:27:58;;;;;;;3.00;2.55;;;;;;;7.36;67.87;98550.27;2871923;82;21157;-66
2021/03/14 01:32:02;;;;;;;3.72;2.15;;;;;;;7.37;67.76;98549.32;2904081;82;21125;-67
2021/03/14 01:36:06;;;;;;;2.70;2.02;;;;;;;7.37;67.67;98549.80;2870607;82;21190;-67
2021/03/14 01:40:11;;;;;;;2.67;2.47;;;;;;;7.35;67.62;98547.79;2908156;80;21162;-68
2021/03/14 01:44:14;;;;;;;2.35;2.15;;;;;;;7.34;67.71;98561.49;2812506;84;21643;-68
2021/03/14 01:48:24;;;;;;;3.20;2.20;;;;;;;7.32;67.68;98556.84;2860893;82;21207;-68
2021/03/14 01:52:28;;;;;;;2.37;1.62;;;;;;;7.30;67.71;98561.45;2812352;84;21189;-68
2021/03/14 01:56:31;;;;;;;3.67;1.90;;;;;;;7.33;67.69;98554.54;2860721;82;21178;-66
2021/03/14 02:00:34;;;;;;;4.10;2.70;;;;;;;7.31;67.75;98555.18;2796689;84;21157;-68
2021/03/14 02:04:37;;;;;;;6.15;2.47;;;;;;;7.27;67.83;98555.98;2860946;82;21165;-66
2021/03/14 02:08:40;;;;;;;3.47;2.40;;;;;;;7.18;68.07;98556.03;2812381;84;21130;-69
2021/03/14 02:13:11;;;;;;;6.37;2.37;;;;;;;7.13;68.16;98558.60;2860946;83;21161;-65
2021/03/14 02:17:17;;;;;;;5.15;2.08;;;;;;;7.12;68.23;98560.09;2790637;84;21181;-67
2021/03/14 02:21:22;;;;;;;3.10;2.55;;;;;;;7.07;68.20;98558.34;2860796;82;21130;-69
2021/03/14 02:25:35;;;;;;;3.12;2.55;;;;;;;7.05;68.33;98555.87;2812629;84;21165;-66
2021/03/14 02:29:41;;;;;;;4.75;2.45;;;;;;;7.00;68.31;98544.91;2860659;83;21611;-68
2021/03/14 02:33:49;;;;;;;2.95;2.42;;;;;;;6.97;68.25;98543.38;2812638;84;21185;-68
2021/03/14 02:37:53;;;;;;;5.20;2.87;;;;;;;7.00;68.09;98547.55;2860612;82;21571;-66
2021/03/14 02:41:59;;;;;;;4.03;2.45;;;;;;;7.02;68.01;98544.74;2849409;83;21164;-68
2021/03/14 02:46:03;;;;;;;4.55;2.22;;;;;;;7.00;67.75;98544.40;2916456;81;21334;-66
2021/03/14 02:50:10;;;;;;;2.52;1.70;;;;;;;6.99;67.65;98548.02;2916185;81;21167;-69
2021/03/14 02:54:16;;;;;;;8.03;2.35;;;;;;;7.02;67.50;98551.35;2916144;81;21613;-68
2021/03/14 02:58:21;;;;;;;1.92;1.67;;;;;;;7.00;67.53;98548.37;2916118;81;21636;-67
2021/03/14 03:02:25;;;;;;;3.00;2.08;;;;;;;6.93;67.44;98548.62;2916049;81;21545;-67
2021/03/14 03:06:29;;;;;;;3.02;2.08;;;;;;;7.00;67.02;98546.23;2916226;81;21126;-68
2021/03/14 03:10:46;;;;;;;4.67;1.80;;;;;;;7.08;66.96;98550.79;2916105;81;21154;-68
2021/03/14 03:14:50;;;;;;;1.98;1.87;;;;;;;7.14;66.37;98546.23;2914024;81;21194;-67
2021/03/14 03:18:56;;;;;;;4.75;2.70;;;;;;;7.19;66.34;98560.34;2906443;81;21159;-69
2021/03/14 03:23:00;;;;;;;4.67;2.08;;;;;;;7.18;66.35;98567.42;2906796;81;21150;-67
2021/03/14 03:27:03;;;;;;;1.95;1.15;;;;;;;7.20;66.21;98571.27;2906734;81;21147;-66
2021/03/14 03:31:06;;;;;;;3.02;2.33;;;;;;;7.17;66.17;98559.63;2906704;81;21155;-67
2021/03/14 03:35:11;;;;;;;3.90;3.02;;;;;;;7.13;66.27;98560.43;2906951;81;21123;-68
2021/03/14 03:39:15;;;;;;;4.33;2.47;;;;;;;7.09;66.37;98561.20;2907049;81;21118;-66
2021/03/14 03:43:23;;;;;;;10.75;2.70;;;;;;;7.05;66.47;98569.56;2906908;81;21577;-67
2021/03/14 03:47:27;;;;;;;5.53;1.62;;;;;;;6.94;66.44;98565.29;2906867;81;21166;-67
2021/03/14 03:51:31;;;;;;;2.12;1.60;;;;;;;6.98;66.22;98562.22;2906585;81;21131;-66
2021/03/14 03:55:35;;;;;;;3.17;1.77;;;;;;;7.11;65.82;98565.03;2906976;81;21167;-67
2021/03/14 03:59:39;;;;;;;2.05;1.47;;;;;;;7.20;65.44;98569.94;2906616;81;21170;-66
2021/03/14 04:03:45;;;;;;;3.33;1.55;;;;;;;7.23;65.10;98581.03;2906892;81;21131;-66
2021/03/14 04:07:50;;;;;;;3.02;1.95;;;;;;;7.27;64.95;98583.75;2906848;81;21187;-67
2021/03/14 04:11:54;;;;;;;3.80;1.32;;;;;;;7.27;65.00;98588.20;2906606;81;21151;-67
2021/03/14 04:15:57;;;;;;;3.00;1.80;;;;;;;7.25;64.80;98575.61;2906732;81;21163;-66
2021/03/14 04:20:02;;;;;;;1.60;1.25;;;;;;;7.31;64.44;98580.81;2906967;81;21150;-67
2021/03/14 04:24:10;;;;;;;3.45;2.45;;;;;;;7.39;64.23;98569.84;2906356;81;21130;-67
2021/03/14 04:28:13;;;;;;;14.40;2.42;;;;;;;7.40;63.82;98566.22;2906701;81;21163;-67
2021/03/14 04:32:17;;;;;;;1.47;1.25;;;;;;;7.40;63.87;98563.57;2907171;81;21182;-66
2021/03/14 04:36:22;;;;;;;5.20;1.92;;;;;;;7.41;63.44;98552.01;2906903;81;21162;-66
2021/03/14 04:40:26;;;;;;;3.05;2.10;;;;;;;7.45;63.35;98547.23;2907027;81;21139;-67
2021/03/14 04:44:30;;;;;;;4.40;1.75;;;;;;;7.47;62.75;98543.97;2877576;81;21585;-69
2021/03/14 04:48:33;;;;;;;1.45;1.35;;;;;;;7.48;62.79;98541.66;2906908;81;21180;-66
2021/03/14 04:52:38;;;;;;;1.60;1.50;;;;;;;7.41;62.93;98539.25;2906933;81;21166;-67
2021/03/14 04:56:43;;;;;;;3.47;1.57;;;;;;;7.37;63.20;98542.70;2907312;81;22322;-67
2021/03/14 05:00:48;;;;;;;7.60;2.12;;;;;;;7.31;63.04;98537.98;2907091;81;21186;-66
2021/03/14 05:04:53;;;;;;;1.42;0.80;;;;;;;7.34;63.33;98543.48;2906975;81;21182;-69
2021/03/14 05:08:59;;;;;;;2.42;1.30;;;;;;;7.36;63.13;98560.03;2906980;81;21610;-67
2021/03/14 05:13:04;;;;;;;1.82;1.70;;;;;;;7.36;63.51;98566.65;2906757;81;21540;-65
2021/03/14 05:17:07;;;;;;;3.20;1.20;;;;;;;7.34;63.53;98573.91;2907023;81;21444;-67
2021/03/14 05:21:12;;;;;;;3.05;1.65;;;;;;;7.38;63.32;98585.38;2907193;81;21155;-67
2021/03/14 05:25:18;;;;;;;2.20;1.72;;;;;;;7.38;63.18;98580.56;2906953;81;21174;-67
2021/03/14 05:29:23;;;;;;;;;;;;;;;7.40;63.30;98578.12;2909840;81;21174;-67
2021/03/14 05:33:26;;;;;;;2.98;2.08;;;;;;;7.37;63.18;98589.00;2906868;81;20149;-66
2021/03/14 05:37:29;;;;;;;5.25;3.15;;;;;;;7.35;63.15;98586.96;2906339;81;21167;-67
2021/03/14 05:41:34;;;;;;;2.45;1.47;;;;;;;7.51;63.22;98596.08;2942240;80;21118;-67
2021/03/14 05:45:37;;;;;;;3.65;1.35;;;;;;;7.88;62.70;98589.86;2828404;83;21585;-67
2021/03/14 05:49:40;;;;;;;3.98;1.30;;;;;;;8.25;61.83;98594.17;2876574;82;21595;-68
2021/03/14 05:53:46;;;;;;;4.58;1.90;;;;;;;8.62;60.95;98602.93;2827025;83;21118;-67
2021/03/14 05:57:53;;;;;;;2.10;1.25;;;;;;;8.86;60.14;98596.16;2876626;82;21149;-67
2021/03/14 06:01:59;;;;;;;1.62;1.25;;;;;;;9.04;59.55;98593.91;2876950;82;21165;-66
2021/03/14 06:06:07;;;;;;;;;;;;;;;9.12;58.90;98593.97;2879663;82;21169;-66
2021/03/14 06:10:12;;;;;;;2.15;1.15;;;;;;;9.01;58.28;98599.05;2871218;82;20496;-66
2021/03/14 06:14:15;;;;;;;2.05;1.25;;;;;;;8.92;58.81;98617.21;2868782;83;21135;-66
2021/03/14 06:18:20;;;;;;;3.90;1.12;;;;;;;8.84;59.02;98620.64;2868863;82;21194;-65
2021/03/14 06:22:26;;;;;;;2.02;1.27;;;;;;;8.73;59.10;98623.56;2868817;83;21593;-66
2021/03/14 06:26:49;;;;;;;4.83;1.60;;;;;;;8.70;59.77;98630.84;2868806;82;21481;-66
2021/03/14 06:30:52;;;;;;;2.22;1.10;;;;;;;8.69;59.84;98642.43;2868896;83;21171;-66
2021/03/14 06:35:19;;;;;;;2.45;1.92;;;;;;;8.64;59.68;98645.20;2868712;83;21162;-66
2021/03/14 06:39:29;;;;;;;6.92;2.67;;;;;;;8.68;60.42;98651.37;2868572;83;21653;-67
2021/03/14 06:43:43;;;;;;;3.37;2.33;;;;;;;8.73;61.04;98649.56;2868940;82;21167;-66
2021/03/14 06:47:49;;;;;;;2.60;1.60;;;;;;;8.77;60.55;98656.72;2868581;83;21183;-67
2021/03/14 06:51:56;;;;;;;2.47;1.42;;;;;;;8.96;60.54;98668.47;2869238;83;21182;-67
2021/03/14 06:56:07;;;;;;;2.17;1.62;;;;;;;9.18;59.77;98656.18;2868872;83;21167;-66
2021/03/14 07:00:11;;;;;;;5.28;2.05;;;;;;;9.40;59.80;98674.69;2868812;82;21492;-66
2021/03/14 07:04:16;;;;;;;2.95;1.50;;;;;;;9.54;59.03;98688.70;2868737;83;21147;-67
2021/03/14 07:08:28;;;;;;;2.98;1.30;;;;;;;9.61;58.73;98698.20;2840321;83;21162;-66
2021/03/14 07:12:44;;;;;;;6.72;2.42;;;;;;;9.71;58.31;98699.41;2855860;83;21599;-66
2021/03/14 07:16:51;;;;;;;4.12;1.82;;;;;;;9.70;58.73;98704.38;2863213;83;21165;-65
2021/03/14 07:20:55;;;;;;;1.90;1.62;;;;;;;9.73;58.42;98700.07;2863399;83;21144;-68
2021/03/14 07:25:00;;;;;;;6.55;1.60;;;;;;;9.77;58.06;98712.55;2863620;82;21157;-66
2021/03/14 07:29:03;;;;;;;2.22;1.98;;;;;;;9.81;58.55;98704.59;2863196;83;21128;-66
2021/03/14 07:33:06;;;;;;;5.58;2.72;;;;;;;9.84;57.63;98707.77;2863430;83;21193;-66
2021/03/14 07:37:11;;;;;;;2.90;2.37;;;;;;;9.92;58.44;98718.89;2863137;82;21133;-67
2021/03/14 07:41:15;;;;;;;3.42;1.25;;;;;;;10.03;56.78;98706.33;2863350;82;21160;-66
2021/03/14 07:45:18;;;;;;;2.75;1.75;;;;;;;10.25;58.04;98715.53;2863756;83;21623;-68
2021/03/14 07:49:25;;;;;;;2.33;2.08;;;;;;;10.46;57.89;98715.60;2878491;82;21150;-68
2021/03/14 07:53:28;;;;;;;5.92;1.72;;;;;;;10.51;56.69;98703.97;2884695;82;21133;-67
2021/03/14 07:57:32;;;;;;;1.75;1.65;;;;;;;10.64;56.04;98714.97;2884536;82;22270;-67
2021/03/14 08:01:37;;;;;;;2.85;1.92;;;;;;;10.73;56.73;98709.64;2884509;82;21600;-67
2021/03/14 08:05:46;;;;;;;5.03;1.67;;;;;;;10.73;56.09;98738.89;2884954;82;21169;-66
2021/03/14 08:14:04;;;;;;;4.22;1.82;;;;;;;10.73;56.08;98700.33;3042806;77;22941;-66
2021/03/14 08:18:08;;;;;;;6.22;2.55;;;;;;;10.80;56.51;98735.41;2958257;80;21622;-65
2021/03/14 08:22:39;;;;;;;4.45;2.45;;;;;;;10.90;55.86;98741.89;2889057;81;21130;-66
2021/03/14 08:26:41;;;;;;;3.05;1.55;;;;;;;10.88;56.75;98745.22;2916727;81;21547;-67
2021/03/14 08:30:45;;;;;;;2.58;2.35;;;;;;;11.07;57.61;98781.30;2889248;81;21164;-65
2021/03/14 08:34:48;;;;;;;4.75;1.67;;;;;;;11.25;58.20;98753.69;2916598;81;21128;-65
2021/03/14 08:38:54;;;;;;;6.33;2.30;;;;;;;11.25;56.22;98762.52;2916362;81;21130;-66
2021/03/14 08:42:57;;;;;;;3.55;1.85;;;;;;;11.28;55.97;98781.30;2916704;81;21579;-67
2021/03/14 08:47:07;;;;;;;6.53;2.40;;;;;;;10.95;58.14;98763.50;2916232;81;21152;-66
2021/03/14 08:51:11;;;;;;;4.25;3.00;;;;;;;10.88;56.98;98801.09;2916814;81;21128;-64
2021/03/14 08:55:14;;;;;;;6.10;3.30;;;;;;;10.71;57.98;98810.88;2917017;81;21113;-64
2021/03/14 08:59:19;;;;;;;7.35;3.55;;;;;;;10.82;59.16;98820.37;2917104;81;21136;-67
2021/03/14 09:03:22;;;;;;;3.87;2.20;;;;;;;10.80;56.88;98831.64;2917314;81;21147;-66
2021/03/14 09:07:26;;;;;;;5.72;3.05;;;;;;;10.74;57.33;98836.30;2917229;81;21152;-65
2021/03/14 09:11:47;;;;;;;3.75;1.65;;;;;;;10.88;58.36;98860.09;2918182;80;21164;-67
2021/03/14 09:15:52;;;;;;;4.80;3.17;;;;;;;10.88;58.12;98867.59;2921133;81;21206;-69
2021/03/14 09:19:56;;;;;;;6.90;2.52;;;;;;;10.70;58.11;98885.83;2962447;80;21137;-68
2021/03/14 09:24:00;;;;;;;3.35;2.60;;;;;;;10.46;57.94;98897.70;2972476;80;21125;-67
2021/03/14 09:28:03;;;;;;;2.33;2.02;;;;;;;10.47;59.14;98920.64;2972055;80;21121;-66
2021/03/14 09:32:43;;;;;;;3.72;2.65;;;;;;;10.46;59.86;98917.64;2972192;80;21090;-67
2021/03/14 09:36:50;;;;;;;11.10;2.58;;;;;;;10.38;59.42;98933.84;2972103;80;21856;-68
2021/03/14 09:40:53;;;;;;;2.50;2.22;;;;;;;10.31;60.03;98940.78;2968935;79;21143;-67
2021/03/14 09:45:13;;;;;;;6.55;3.35;;;;;;;10.27;61.02;98954.05;2968179;80;21151;-67
2021/03/14 09:49:16;;;;;;;4.80;2.42;;;;;;;10.15;61.06;98951.64;2962072;80;21161;-68
2021/03/14 09:53:23;;;;;;;4.85;2.58;;;;;;;9.92;62.10;98964.58;2968036;80;21586;-68
2021/03/14 09:57:25;;;;;;;3.52;1.92;;;;;;;9.80;63.11;98971.14;2967897;80;21120;-68
2021/03/14 10:01:29;;;;;;;3.90;3.00;;;;;;;9.82;62.45;98959.36;2968171;80;21155;-67
2021/03/14 10:05:46;;;;;;;4.60;3.15;;;;;;;9.75;62.27;98951.68;2968285;80;21593;-67
2021/03/14 10:09:51;;;;;;;3.03;2.63;;;;;;;9.73;62.92;98957.64;2968367;80;21586;-67
2021/03/14 10:13:55;;;;;;;2.52;2.33;;;;;;;9.75;62.96;98955.66;2947155;80;21144;-67
2021/03/14 10:17:59;;;;;;;3.15;2.02;;;;;;;9.78;63.23;98976.59;2942836;80;21125;-68
2021/03/14 10:22:03;;;;;;;2.35;2.15;;;;;;;9.94;63.98;98961.31;2942792;80;21136;-70
2021/03/14 10:26:10;;;;;;;3.52;2.95;;;;;;;10.02;63.50;98982.27;2942980;80;21164;-66
2021/03/14 10:30:19;;;;;;;4.12;2.45;;;;;;;10.04;64.23;98998.89;2942512;80;21148;-67
2021/03/14 10:34:23;;;;;;;2.60;2.17;;;;;;;9.97;64.22;99018.11;2942422;80;21112;-65
2021/03/14 10:38:26;;;;;;;4.35;2.85;;;;;;;9.97;65.88;99006.16;2957598;79;21545;-68
2021/03/14 10:42:38;;;;;;;4.10;2.12;;;;;;;10.09;65.95;98997.45;2956717;79;21600;-66
2021/03/14 10:46:49;;;;;;;4.20;2.55;;;;;;;10.13;65.45;98997.47;2914327;80;21133;-66
2021/03/14 10:51:03;;;;;;;3.20;2.65;;;;;;;10.21;65.67;99002.49;2899535;82;21192;-65
2021/03/14 10:55:28;;;;;;;2.77;2.33;;;;;;;10.25;65.62;98979.95;2926760;80;21145;-65
2021/03/14 10:59:33;;;;;;;3.55;2.72;;;;;;;10.42;65.29;98965.81;2950728;80;21141;-66
2021/03/14 11:03:40;;;;;;;7.97;2.72;;;;;;;10.66;64.56;98965.59;2950753;80;21161;-65
2021/03/14 11:07:43;;;;;;;3.92;3.10;;;;;;;10.54;62.29;98962.87;2950472;80;21109;-67
2021/03/14 11:11:49;;;;;;;2.62;2.10;;;;;;;10.58;64.69;98953.58;2929995;80;21575;-67
2021/03/14 11:16:05;;;;;;;3.00;2.60;;;;;;;10.88;64.58;98970.49;2967056;80;22233;-66
2021/03/14 11:20:10;;;;;;;3.67;2.60;;;;;;;10.82;63.74;98966.16;2966306;80;21117;-65
2021/03/14 11:24:15;;;;;;;3.77;3.20;;;;;;;10.61;65.71;98973.23;2967267;80;21157;-65
2021/03/14 11:28:18;;;;;;;3.40;2.40;;;;;;;10.05;66.05;98977.97;2967507;80;21156;-66
2021/03/14 11:32:22;;;;;;;2.60;1.82;;;;;;;9.93;67.85;98995.98;2966870;80;21463;-63
2021/03/14 11:36:28;;;;;;;2.20;2.10;;;;;;;9.73;69.62;98996.14;2964959;80;21607;-64
2021/03/14 11:40:31;;;;;;;5.92;3.83;;;;;;;9.83;69.03;99007.53;2965166;80;21591;-64
2021/03/14 11:44:37;;;;;;;2.33;2.08;;;;;;;9.87;68.56;99009.38;2934842;80;21161;-66
2021/03/14 11:48:40;;;;;;;6.70;3.37;;;;;;;10.11;69.23;99010.55;2936569;79;21120;-63
2021/03/14 11:52:46;;;;;;;4.15;2.33;;;;;;;10.02;66.87;99008.84;2939946;80;22167;-66
2021/03/14 11:56:49;;;;;;;1.37;1.07;;;;;;;9.90;68.50;99035.63;2958880;79;21161;-64
2021/03/14 12:00:52;;;;;;;2.98;2.05;;;;;;;9.86;68.59;99027.63;2915309;81;21116;-66
2021/03/14 12:04:55;;;;;;;2.65;2.10;;;;;;;9.56;68.22;99019.06;2970733;79;22284;-65
2021/03/14 12:09:00;;;;;;;5.17;3.50;;;;;;;9.42;68.87;99046.92;2957387;80;21134;-64
2021/03/14 12:13:04;;;;;;;5.20;3.45;;;;;;;9.25;69.78;99065.34;2947467;80;21599;-66
2021/03/14 12:17:07;;;;;;;2.52;2.33;;;;;;;9.18;68.65;99040.36;2967786;80;21149;-64
2021/03/14 12:21:10;;;;;;;2.58;2.37;;;;;;;9.39;69.28;99058.70;2967650;80;21105;-64
2021/03/14 12:25:13;;;;;;;2.33;2.12;;;;;;;9.48;66.91;99068.91;2967839;80;21137;-64
2021/03/14 12:29:18;;;;;;;4.12;2.75;;;;;;;9.50;66.69;99062.96;2922942;80;21124;-69
2021/03/14 12:33:21;;;;;;;2.40;2.05;;;;;;;9.35;68.38;99071.08;2915164;81;21153;-63
2021/03/14 12:37:24;;;;;;;2.33;2.12;;;;;;;9.33;67.64;99055.80;2916790;79;21129;-64
2021/03/14 12:41:27;;;;;;;9.48;3.45;;;;;;;9.17;67.34;99041.34;2975097;79;21150;-63
2021/03/14 12:45:30;;;;;;;3.58;2.33;;;;;;;9.09;68.09;99059.31;2990026;79;21127;-64
2021/03/14 12:49:34;;;;;;;3.40;2.60;;;;;;;9.25;67.49;99057.38;2990143;79;21138;-64
2021/03/14 12:53:37;;;;;;;4.42;3.22;;;;;;;9.42;68.35;99052.23;2990175;79;21161;-64
2021/03/14 12:57:40;;;;;;;2.80;2.60;;;;;;;9.33;66.27;99015.98;2989820;79;21568;-62
2021/03/14 13:01:43;;;;;;;5.35;3.30;;;;;;;9.35;68.36;99045.86;2990188;79;21687;-63
2021/03/14 13:05:46;;;;;;;2.80;2.52;;;;;;;9.08;68.02;99082.85;2856303;82;21161;-63
2021/03/14 13:09:50;;;;;;;4.12;3.35;;;;;;;9.05;67.96;99046.52;2905974;81;21146;-64
2021/03/14 13:13:53;;;;;;;4.80;3.30;;;;;;;9.03;69.21;99063.04;2897440;81;21620;-63
2021/03/14 13:17:56;;;;;;;5.45;2.60;;;;;;;9.13;68.67;99089.88;2913795;81;21150;-66
2021/03/14 13:21:59;;;;;;;3.02;2.22;;;;;;;9.28;68.97;99094.23;2913797;81;21158;-64
2021/03/14 13:26:05;;;;;;;3.33;2.30;;;;;;;9.32;67.87;99090.77;2914291;81;21711;-63
2021/03/14 13:30:09;;;;;;;4.40;3.22;;;;;;;9.20;67.71;99079.52;2913935;81;21592;-64
2021/03/14 13:34:12;;;;;;;7.33;2.95;;;;;;;9.10;67.63;99080.88;2914152;81;21166;-67
2021/03/14 13:38:15;;;;;;;4.87;3.10;;;;;;;9.08;68.18;99080.20;2914120;81;21160;-64
2021/03/14 13:42:20;;;;;;;4.92;3.10;;;;;;;9.04;69.10;99077.97;2913840;81;21657;-63
2021/03/14 13:46:23;;;;;;;7.55;3.52;;;;;;;8.99;69.31;99107.10;2843701;82;21602;-65
2021/03/14 13:50:27;;;;;;;5.08;2.37;;;;;;;9.00;69.84;99115.91;2899987;81;21118;-64
2021/03/14 13:54:30;;;;;;;4.53;3.05;;;;;;;8.98;69.57;99104.11;2917845;81;21686;-64
2021/03/14 13:58:37;;;;;;;5.55;3.67;;;;;;;8.94;69.61;99117.80;2879724;82;21234;-63
2021/03/14 14:02:43;;;;;;;2.80;2.30;;;;;;;8.94;69.00;99121.77;2918013;81;21632;-64
2021/03/14 14:06:46;;;;;;;3.12;2.40;;;;;;;9.14;69.26;99118.58;2879942;82;21153;-69
2021/03/14 14:10:51;;;;;;;4.47;2.10;;;;;;;9.09;68.81;99112.88;2917670;81;21157;-69
2021/03/14 14:14:54;;;;;;;3.30;2.70;;;;;;;9.13;69.61;99140.79;2880708;82;22352;-69
2021/03/14 14:18:57;;;;;;;4.25;2.50;;;;;;;9.07;69.23;99167.39;2918783;81;21157;-70
2021/03/14 14:23:02;;;;;;;5.47;4.05;;;;;;;9.05;69.65;99166.70;2881174;82;21137;-69
2021/03/14 14:27:07;;;;;;;3.83;2.75;;;;;;;9.15;69.55;99175.97;2918913;81;21161;-69
2021/03/14 14:31:10;;;;;;;4.10;2.95;;;;;;;9.25;69.58;99186.08;2880860;82;21157;-69
2021/03/14 14:35:14;;;;;;;3.45;3.10;;;;;;;9.31;69.04;99162.59;2918796;81;21611;-69
2021/03/14 14:39:18;;;;;;;4.50;3.80;;;;;;;9.38;68.57;99180.44;2880492;82;21153;-69
2021/03/14 14:43:22;;;;;;;5.00;3.90;;;;;;;9.36;68.83;99174.92;2918524;81;21142;-69
2021/03/14 14:47:28;;;;;;;4.42;3.75;;;;;;;9.34;68.11;99180.39;2880653;81;21113;-69
2021/03/14 14:55:46;;;;;;;5.75;3.52;;;;;;;9.48;68.20;99191.50;3065286;77;23377;-67
2021/03/14 14:59:49;;;;;;;4.42;4.03;;;;;;;9.46;69.00;99186.83;3019751;78;21169;-67
2021/03/14 15:03:52;;;;;;;6.67;4.67;;;;;;;9.36;69.18;99191.70;2959570;80;21174;-67
2021/03/14 15:07:55;;;;;;;6.20;4.00;;;;;;;9.38;68.71;99192.86;2959676;80;21141;-69
2021/03/14 15:11:58;;;;;;;5.45;4.08;;;;;;;9.34;68.20;99171.58;2959311;80;21174;-68
2021/03/14 15:16:01;;;;;;;5.15;4.65;;;;;;;9.36;68.07;99190.84;2959465;80;21147;-67
2021/03/14 15:20:06;;;;;;;6.95;6.17;;;;;;;9.30;68.29;99205.52;2959206;80;22254;-67
2021/03/14 15:24:11;;;;;;;6.45;5.60;;;;;;;9.26;68.75;99208.97;2959390;80;21154;-68
2021/03/14 15:28:13;;;;;;;6.42;4.65;;;;;;;9.27;69.56;99215.95;2959174;80;21189;-67
2021/03/14 15:32:16;;;;;;;8.63;4.62;;;;;;;9.20;70.60;99233.91;2959152;80;21700;-67
2021/03/14 15:36:20;;;;;;;8.13;5.40;;;;;;;8.52;75.41;99232.98;2959643;80;21177;-66
2021/03/14 15:40:23;;;;;;;5.17;3.85;;;;;;;8.11;77.61;99252.41;2959633;80;21146;-67
2021/03/14 15:44:26;;;;;;;5.22;4.42;;;;;;;8.11;78.90;99244.46;2959346;80;21612;-67
2021/03/14 15:48:29;;;;;;;12.80;4.67;;;;;;;8.24;78.75;99252.63;2935669;80;21135;-66
2021/03/14 15:52:34;;;;;;;7.75;4.70;;;;;;;8.26;78.27;99253.36;2907506;81;21759;-66
2021/03/14 15:56:37;;;;;;;8.43;6.47;;;;;;;8.28;78.20;99252.22;2908176;81;21087;-66
2021/03/14 16:00:44;;;;;;;8.45;4.78;;;;;;;8.32;78.16;99252.80;2907607;81;21166;-67
2021/03/14 16:04:47;;;;;;;7.90;5.47;;;;;;;8.38;77.44;99257.55;2907230;81;22311;-66
2021/03/14 16:08:50;;;;;;;6.78;5.40;;;;;;;8.47;76.56;99276.27;2906977;81;21198;-66
2021/03/14 16:12:53;;;;;;;6.97;3.55;;;;;;;8.41;77.40;99274.48;2907442;81;21150;-66
2021/03/14 16:16:57;;;;;;;5.85;3.77;;;;;;;8.07;77.31;99289.41;2907099;81;21613;-66
2021/03/14 16:21:01;;;;;;;5.30;3.30;;;;;;;7.86;78.73;99300.91;2906824;81;21162;-65
2021/03/14 16:25:06;;;;;;;5.20;4.08;;;;;;;7.81;80.42;99309.70;2907350;81;21170;-65
2021/03/14 16:29:09;;;;;;;3.85;3.45;;;;;;;7.82;80.63;99306.09;2906727;81;21579;-65
2021/03/14 16:33:12;;;;;;;5.65;3.87;;;;;;;7.86;80.52;99323.88;2906782;81;21600;-65
2021/03/14 16:41:32;;;;;;;7.60;4.80;;;;;;;7.85;81.30;99327.00;2996840;77;22417;-65
2021/03/14 16:45:35;;;;;;;9.85;5.28;;;;;;;7.80;80.62;99335.83;2951136;80;21118;-65
2021/03/14 16:49:39;;;;;;;9.98;5.50;;;;;;;7.80;79.91;99341.12;2912999;79;21149;-65
2021/03/14 16:53:42;;;;;;;8.20;6.37;;;;;;;7.79;79.22;99345.25;2899688;82;21149;-65
2021/03/14 16:57:47;;;;;;;9.30;5.67;;;;;;;7.66;79.21;99344.95;2900128;82;21176;-65
2021/03/14 17:01:51;;;;;;;7.28;6.58;;;;;;;7.51;79.35;99348.42;2898971;82;21161;-65
2021/03/14 17:05:55;;;;;;;8.40;5.58;;;;;;;7.41;79.57;99354.11;2899872;82;21611;-65
2021/03/14 17:09:59;;;;;;;8.50;5.85;;;;;;;7.32;79.74;99369.45;2899708;82;21153;-65
2021/03/14 17:14:05;;;;;;;6.97;5.45;;;;;;;7.19;79.87;99373.59;2899782;82;21113;-64
2021/03/14 17:18:08;;;;;;;10.50;5.90;;;;;;;7.07;79.72;99381.56;2899752;81;21121;-64
2021/03/14 17:22:13;;;;;;;10.25;7.30;;;;;;;6.98;79.77;99382.33;2899888;82;21599;-65
2021/03/14 17:26:16;;;;;;;9.08;5.25;;;;;;;6.90;79.76;99386.05;2899659;82;21181;-65
2021/03/14 17:30:20;;;;;;;6.90;4.83;;;;;;;6.82;79.72;99388.00;2899731;82;21171;-64
2021/03/14 17:34:23;;;;;;;6.03;4.15;;;;;;;6.80;80.03;99395.21;2900104;81;21169;-64
2021/03/14 17:38:26;;;;;;;7.67;4.87;;;;;;;6.78;80.37;99390.53;2912434;80;21161;-65
2021/03/14 17:42:29;;;;;;;8.38;5.42;;;;;;;6.82;81.13;99394.14;2952352;80;21592;-65
2021/03/14 17:46:32;;;;;;;9.15;5.00;;;;;;;6.95;81.57;99409.84;2952696;80;21312;-65
2021/03/14 17:50:36;;;;;;;24.40;11.50;;;;;;;6.83;82.64;99449.16;2951963;79;21168;-64
2021/03/14 17:54:39;;;;;;;21.87;12.75;;;;;;;6.66;81.19;99451.83;2951846;80;21145;-65
2021/03/14 17:58:44;;;;;;;6.75;4.15;;;;;;;6.52;81.81;99443.17;2950275;80;21161;-65
2021/03/14 18:02:49;;;;;;;3.25;2.90;;;;;;;6.49;82.45;99451.84;2950475;80;21145;-65
2021/03/14 18:06:53;;;;;;;7.47;4.25;;;;;;;6.48;82.43;99440.41;2951809;80;21620;-64
2021/03/14 18:10:56;;;;;;;4.95;3.33;;;;;;;6.53;82.34;99449.31;2951525;80;21126;-65
2021/03/14 18:15:00;;;;;;;3.10;2.80;;;;;;;6.59;82.25;99460.71;2952059;80;21141;-65
2021/03/14 18:19:04;;;;;;;3.47;2.50;;;;;;;6.63;82.36;99464.79;2951774;80;21154;-64
2021/03/14 18:23:07;;;;;;;5.20;3.02;;;;;;;6.68;82.23;99468.40;2952070;80;21135;-65
2021/03/14 18:27:11;;;;;;;6.05;3.85;;;;;;;6.73;82.13;99470.19;2952079;80;21169;-65
2021/03/14 18:31:14;;;;;;;8.73;4.62;;;;;;;6.77;82.09;99472.12;2951614;80;21770;-64
2021/03/14 18:35:19;;;;;;;14.95;7.58;;;;;;;6.81;82.04;99463.83;2951595;80;21122;-65
2021/03/14 18:39:25;;;;;;;13.08;7.15;;;;;;;6.84;81.89;99468.88;2949884;80;21133;-64
2021/03/14 18:43:28;;;;;;;13.05;6.35;;;;;;;6.92;81.71;99473.55;2946950;80;21604;-64
2021/03/14 18:47:30;;;;;;;4.55;3.27;;;;;;;6.92;81.71;99473.55;2946787;79;21125;-64
2021/03/14 18:51:35;;;;;;;5.80;3.20;;;;;;;6.94;81.66;99477.38;2946684;80;21511;-64
2021/03/14 18:55:40;;;;;;;3.15;2.58;;;;;;;6.94;81.55;99476.91;2946662;80;21599;-64
2021/03/14 18:59:43;;;;;;;5.15;3.02;;;;;;;6.96;81.47;99482.91;2946544;80;21623;-64
2021/03/14 19:03:46;;;;;;;7.60;3.52;;;;;;;6.96;81.31;99481.59;2946735;80;21145;-64
2021/03/14 19:07:49;;;;;;;5.80;2.33;;;;;;;6.94;81.22;99480.88;2946951;80;21149;-64
2021/03/14 19:11:52;;;;;;;4.35;2.10;;;;;;;6.91;81.18;99480.27;2904724;80;21657;-65
2021/03/14 19:15:56;;;;;;;3.62;3.30;;;;;;;6.86;81.03;99479.31;2903673;82;21179;-64
2021/03/14 19:20:00;;;;;;;3.72;3.33;;;;;;;6.79;80.89;99479.45;2903603;82;21120;-64
2021/03/14 19:24:04;;;;;;;6.78;3.72;;;;;;;6.71;80.67;99487.98;2903585;82;21323;-64
2021/03/14 19:28:08;;;;;;;6.05;4.50;;;;;;;6.64;80.49;99490.25;2903639;82;21147;-64
2021/03/14 19:32:10;;;;;;;7.65;4.10;;;;;;;6.54;80.26;99495.41;2903485;82;21156;-64
2021/03/14 19:36:14;;;;;;;8.43;5.97;;;;;;;6.44;80.27;99486.53;2903859;82;21148;-65
2021/03/14 19:40:18;;;;;;;7.40;4.95;;;;;;;6.37;80.48;99492.77;2903478;81;22366;-64